createdAt,value
2018-01-17T00:01:58.437Z,1.90
2018-01-17T00:04:26.050Z,1.90
2018-01-17T00:06:54.324Z,1.90
2018-01-17T00:09:21.845Z,1.80
2018-01-17T00:11:49.359Z,1.80
2018-01-17T00:14:16.964Z,1.80
2018-01-17T00:16:44.521Z,1.80
2018-01-17T00:19:12.782Z,1.70
2018-01-17T00:21:41.793Z,1.70
2018-01-17T00:24:09.480Z,1.70
2018-01-17T00:26:37.736Z,1.60
2018-01-17T00:29:05.674Z,1.60
2018-01-17T00:31:37.264Z,1.60
2018-01-17T00:34:05.024Z,1.60
2018-01-17T00:36:32.541Z,1.60
2018-01-17T00:39:00.136Z,1.60
2018-01-17T00:41:28.511Z,1.60
2018-01-17T00:43:56.793Z,1.60
2018-01-17T00:46:24.313Z,1.60
2018-01-17T00:48:51.809Z,1.60
2018-01-17T00:51:19.904Z,1.60
2018-01-17T00:53:47.409Z,1.60
2018-01-17T00:56:15.692Z,1.50
2018-01-17T00:58:44.683Z,1.50
2018-01-17T01:01:12.175Z,1.50
2018-01-17T01:03:40.466Z,1.60
2018-01-17T01:06:08.736Z,1.60
2018-01-17T01:08:36.372Z,1.50
2018-01-17T01:11:03.926Z,1.50
2018-01-17T01:13:31.414Z,1.50
2018-01-17T01:15:58.959Z,1.50
2018-01-17T01:18:26.466Z,1.50
2018-01-17T01:20:53.965Z,1.50
2018-01-17T01:23:22.225Z,1.50
2018-01-17T01:25:49.756Z,1.50
2018-01-17T01:28:17.308Z,1.50
2018-01-17T01:30:45.552Z,1.50
2018-01-17T01:33:13.070Z,1.50
2018-01-17T01:35:41.328Z,1.50
2018-01-17T01:38:08.928Z,1.50
2018-01-17T01:40:36.417Z,1.60
2018-01-17T01:43:03.917Z,1.60
2018-01-17T01:45:31.400Z,1.60
2018-01-17T01:47:58.913Z,1.60
2018-01-17T01:50:26.468Z,1.60
2018-01-17T01:52:54.768Z,1.60
2018-01-17T01:55:23.030Z,1.60
2018-01-17T01:57:50.581Z,1.60
2018-01-17T02:00:18.086Z,1.50
2018-01-17T02:02:46.380Z,1.50
2018-01-17T02:05:14.641Z,1.50
2018-01-17T02:07:42.137Z,1.50
2018-01-17T02:10:10.553Z,1.50
2018-01-17T02:12:38.201Z,1.50
2018-01-17T02:15:06.503Z,1.50
2018-01-17T02:17:34.800Z,1.50
2018-01-17T02:20:02.337Z,1.40
2018-01-17T02:22:29.850Z,1.50
2018-01-17T02:24:57.332Z,1.40
2018-01-17T02:27:24.829Z,1.40
2018-01-17T02:29:52.458Z,1.40
2018-01-17T02:32:19.977Z,1.30
2018-01-17T02:34:47.512Z,1.30
2018-01-17T02:37:15.201Z,1.40
2018-01-17T02:39:54.497Z,1.30
2018-01-17T02:42:22.781Z,1.30
2018-01-17T02:44:51.044Z,1.30
2018-01-17T02:47:18.668Z,1.20
2018-01-17T02:49:46.246Z,1.30
2018-01-17T02:52:13.794Z,1.20
2018-01-17T02:54:42.200Z,1.20
2018-01-17T02:57:09.767Z,1.20
2018-01-17T02:59:38.074Z,1.20
2018-01-17T03:02:05.787Z,1.20
2018-01-17T03:04:33.327Z,1.20
2018-01-17T03:07:00.925Z,1.20
2018-01-17T03:09:28.545Z,1.20
2018-01-17T03:11:56.040Z,1.20
2018-01-17T03:14:23.587Z,1.20
2018-01-17T03:16:51.863Z,1.30
2018-01-17T03:19:19.963Z,1.20
2018-01-17T03:21:48.254Z,1.30
2018-01-17T03:24:15.746Z,1.20
2018-01-17T03:26:43.253Z,1.30
2018-01-17T03:29:10.762Z,1.30
2018-01-17T03:31:38.332Z,1.30
2018-01-17T03:34:06.027Z,1.30
2018-01-17T03:36:33.563Z,1.30
2018-01-17T03:39:01.840Z,1.20
2018-01-17T03:41:29.329Z,1.20
2018-01-17T03:43:57.613Z,1.20
2018-01-17T03:46:25.898Z,1.10
2018-01-17T03:48:54.202Z,1.10
2018-01-17T03:51:21.795Z,1.10
2018-01-17T03:53:49.305Z,1.10
2018-01-17T03:56:16.807Z,1.10
2018-01-17T03:58:45.110Z,1.00
2018-01-17T04:01:12.640Z,1.00
2018-01-17T04:03:40.301Z,1.00
2018-01-17T04:06:07.825Z,1.00
2018-01-17T04:08:35.395Z,0.90
2018-01-17T04:11:02.938Z,0.90
2018-01-17T04:13:31.220Z,0.90
2018-01-17T04:15:58.746Z,0.90
2018-01-17T04:18:26.329Z,0.80
2018-01-17T04:20:53.833Z,0.80
2018-01-17T04:23:21.321Z,0.80
2018-01-17T04:25:48.844Z,0.80
2018-01-17T04:28:16.356Z,0.90
2018-01-17T04:30:43.846Z,0.90
2018-01-17T04:33:12.121Z,0.90
2018-01-17T04:35:40.391Z,0.90
2018-01-17T04:38:07.904Z,0.90
2018-01-17T04:40:35.453Z,0.90
2018-01-17T04:43:03.712Z,0.90
2018-01-17T04:45:31.431Z,0.90
2018-01-17T04:47:59.037Z,0.90
2018-01-17T04:50:26.551Z,1.00
2018-01-17T04:52:54.029Z,0.90
2018-01-17T04:55:22.288Z,1.00
2018-01-17T04:57:49.810Z,0.90
2018-01-17T05:00:17.969Z,1.00
2018-01-17T05:02:45.545Z,1.00
2018-01-17T05:05:15.812Z,1.00
2018-01-17T05:07:43.321Z,0.90
2018-01-17T05:10:11.587Z,1.00
2018-01-17T05:12:39.152Z,0.90
2018-01-17T05:15:06.668Z,1.00
2018-01-17T05:17:34.171Z,1.00
2018-01-17T05:20:01.725Z,1.00
2018-01-17T05:22:30.101Z,1.00
2018-01-17T05:24:57.701Z,1.00
2018-01-17T05:27:25.220Z,1.00
2018-01-17T05:29:52.747Z,1.00
2018-01-17T05:32:20.288Z,1.00
2018-01-17T05:34:47.982Z,1.00
2018-01-17T05:37:16.256Z,1.10
2018-01-17T05:39:44.549Z,1.10
2018-01-17T05:42:12.828Z,1.10
2018-01-17T05:44:40.340Z,1.10
2018-01-17T05:47:07.924Z,1.10
2018-01-17T05:49:35.483Z,1.10
2018-01-17T05:52:03.197Z,1.10
2018-01-17T05:54:30.716Z,1.20
2018-01-17T05:56:58.365Z,1.20
2018-01-17T05:59:26.830Z,1.20
2018-01-17T06:01:54.445Z,1.20
2018-01-17T06:04:22.009Z,1.30
2018-01-17T06:06:50.305Z,1.30
2018-01-17T06:09:18.599Z,1.30
2018-01-17T06:11:46.125Z,1.30
2018-01-17T06:14:13.748Z,1.30
2018-01-17T06:16:41.261Z,1.30
2018-01-17T06:19:08.777Z,1.30
2018-01-17T06:21:37.057Z,1.30
2018-01-17T06:24:05.309Z,1.30
2018-01-17T06:26:32.825Z,1.30
2018-01-17T06:29:01.128Z,1.30
2018-01-17T06:31:28.665Z,1.30
2018-01-17T06:33:56.380Z,1.30
2018-01-17T06:36:23.913Z,1.30
2018-01-17T06:38:51.413Z,1.30
2018-01-17T06:41:18.988Z,1.30
2018-01-17T06:43:46.502Z,1.30
2018-01-17T06:46:14.104Z,1.30
2018-01-17T06:48:42.527Z,1.30
2018-01-17T06:51:10.269Z,1.30
2018-01-17T06:53:38.672Z,1.40
2018-01-17T06:56:06.959Z,1.40
2018-01-17T06:58:35.233Z,1.40
2018-01-17T07:01:03.538Z,1.40
2018-01-17T07:03:31.055Z,1.40
2018-01-17T07:05:58.576Z,1.40
2018-01-17T07:08:26.985Z,1.50
2018-01-17T07:10:54.513Z,1.40
2018-01-17T07:13:22.022Z,1.50
2018-01-17T07:15:49.583Z,1.50
2018-01-17T07:18:17.881Z,1.40
2018-01-17T07:20:45.372Z,1.40
2018-01-17T07:23:12.898Z,1.40
2018-01-17T07:25:41.173Z,1.50
2018-01-17T07:28:08.870Z,1.50
2018-01-17T07:30:36.376Z,1.50
2018-01-17T07:33:03.930Z,1.50
2018-01-17T07:35:31.658Z,1.60
2018-01-17T07:37:59.156Z,1.60
2018-01-17T07:40:27.424Z,1.60
2018-01-17T07:42:54.980Z,1.60
2018-01-17T07:45:22.484Z,1.60
2018-01-17T07:47:50.781Z,1.60
2018-01-17T07:50:19.173Z,1.70
2018-01-17T07:52:46.849Z,1.60
2018-01-17T07:55:15.102Z,1.60
2018-01-17T07:57:43.386Z,1.60
2018-01-17T08:00:10.879Z,1.60
2018-01-17T08:02:38.476Z,1.70
2018-01-17T08:05:06.084Z,1.70
2018-01-17T08:07:33.587Z,1.70
2018-01-17T08:10:01.097Z,1.60
2018-01-17T08:12:29.042Z,1.60
2018-01-17T08:14:57.316Z,1.50
2018-01-17T08:17:24.914Z,1.50
2018-01-17T08:19:53.177Z,1.50
2018-01-17T08:22:20.669Z,1.50
2018-01-17T08:24:49.045Z,1.40
2018-01-17T08:27:16.561Z,1.40
2018-01-17T08:29:44.125Z,1.40
2018-01-17T08:32:11.637Z,1.40
2018-01-17T08:34:39.177Z,1.30
2018-01-17T08:37:06.717Z,1.30
2018-01-17T08:39:35.021Z,1.20
2018-01-17T08:42:02.649Z,1.20
2018-01-17T08:44:30.249Z,1.20
2018-01-17T08:46:58.718Z,1.20
2018-01-17T08:49:26.217Z,1.20
2018-01-17T08:51:55.326Z,1.20
2018-01-17T08:54:23.729Z,1.20
2018-01-17T08:56:51.278Z,1.20
2018-01-17T08:59:19.531Z,1.20
2018-01-17T09:01:47.033Z,1.20
2018-01-17T09:04:15.451Z,1.20
2018-01-17T09:06:42.983Z,1.20
2018-01-17T09:09:10.624Z,1.20
2018-01-17T09:11:38.125Z,1.10
2018-01-17T09:14:05.739Z,1.10
2018-01-17T09:16:33.254Z,1.20
2018-01-17T09:19:00.788Z,1.20
2018-01-17T09:21:28.281Z,1.20
2018-01-17T09:23:55.911Z,1.20
2018-01-17T09:26:24.185Z,1.20
2018-01-17T09:28:52.449Z,1.20
2018-01-17T09:31:19.949Z,1.20
2018-01-17T09:33:48.212Z,1.20
2018-01-17T09:36:15.946Z,1.20
2018-01-17T09:38:43.488Z,1.20
2018-01-17T09:41:11.076Z,1.20
2018-01-17T09:43:38.584Z,1.20
2018-01-17T09:46:06.137Z,1.20
2018-01-17T09:48:33.663Z,1.20
2018-01-17T09:51:01.159Z,1.20
2018-01-17T09:53:28.713Z,1.20
2018-01-17T09:55:57.040Z,1.20
2018-01-17T09:58:24.580Z,1.20
2018-01-17T10:00:52.858Z,1.30
2018-01-17T10:03:20.407Z,1.20
2018-01-17T10:05:47.893Z,1.30
2018-01-17T10:08:16.170Z,1.30
2018-01-17T10:10:43.783Z,1.30
2018-01-17T10:13:11.285Z,1.30
2018-01-17T10:15:38.886Z,1.30
2018-01-17T10:18:06.415Z,1.30
2018-01-17T10:20:34.003Z,1.40
2018-01-17T10:23:01.534Z,1.40
2018-01-17T10:25:29.128Z,1.40
2018-01-17T10:27:56.828Z,1.40
2018-01-17T10:30:24.379Z,1.50
2018-01-17T10:32:52.237Z,1.50
2018-01-17T10:35:19.738Z,1.50
2018-01-17T10:37:47.275Z,1.50
2018-01-17T10:40:14.826Z,1.50
2018-01-17T10:42:43.233Z,1.60
2018-01-17T10:45:10.823Z,1.60
2018-01-17T10:47:38.342Z,1.70
2018-01-17T10:50:06.881Z,1.70
2018-01-17T10:52:34.397Z,1.70
2018-01-17T10:55:01.893Z,1.80
2018-01-17T10:57:30.262Z,1.90
2018-01-17T10:59:57.838Z,1.90
2018-01-17T11:02:25.377Z,2.00
2018-01-17T11:04:52.929Z,2.00
2018-01-17T11:07:20.425Z,2.00
2018-01-17T11:09:47.939Z,2.10
2018-01-17T11:12:16.357Z,2.20
2018-01-17T11:14:43.841Z,2.20
2018-01-17T11:17:11.430Z,2.30
2018-01-17T11:19:38.993Z,2.30
2018-01-17T11:22:06.508Z,2.30
2018-01-17T11:24:34.179Z,2.40
2018-01-17T11:27:01.699Z,2.40
2018-01-17T11:29:29.269Z,2.40
2018-01-17T11:31:56.760Z,2.40
2018-01-17T11:34:24.263Z,2.40
2018-01-17T11:36:52.527Z,2.30
2018-01-17T11:39:20.018Z,2.30
2018-01-17T11:41:48.294Z,2.20
2018-01-17T11:44:15.948Z,2.20
2018-01-17T11:46:43.463Z,2.20
2018-01-17T11:49:12.480Z,2.20
2018-01-17T11:51:40.754Z,2.20
2018-01-17T11:54:08.362Z,2.10
2018-01-17T11:56:35.921Z,2.10
2018-01-17T11:59:04.375Z,2.10
2018-01-17T12:01:31.973Z,2.10
2018-01-17T12:04:00.257Z,2.10
2018-01-17T12:06:28.527Z,2.10
2018-01-17T12:08:56.053Z,2.00
2018-01-17T12:11:23.582Z,2.10
2018-01-17T12:13:51.169Z,2.10
2018-01-17T12:16:19.418Z,2.10
2018-01-17T12:18:46.929Z,2.00
2018-01-17T12:21:15.214Z,2.10
2018-01-17T12:23:43.497Z,2.00
2018-01-17T12:26:11.817Z,2.10
2018-01-17T12:28:39.368Z,2.00
2018-01-17T12:31:07.673Z,2.10
2018-01-17T12:33:35.339Z,2.00
2018-01-17T12:36:02.866Z,2.10
2018-01-17T12:38:30.369Z,2.00
2018-01-17T12:40:58.770Z,2.00
2018-01-17T12:43:26.272Z,2.00
2018-01-17T12:45:53.808Z,2.00
2018-01-17T12:48:21.347Z,1.90
2018-01-17T12:50:48.963Z,1.80
2018-01-17T12:53:16.483Z,1.80
2018-01-17T12:55:44.099Z,1.80
2018-01-17T12:58:12.941Z,1.70
2018-01-17T13:00:40.441Z,1.70
2018-01-17T13:03:07.962Z,1.70
2018-01-17T13:05:35.977Z,1.70
2018-01-17T13:08:03.501Z,1.60
2018-01-17T13:10:31.119Z,1.60
2018-01-17T13:12:58.600Z,1.40
2018-01-17T13:15:26.213Z,1.40
2018-01-17T13:17:53.829Z,1.40
2018-01-17T13:20:21.377Z,1.30
2018-01-17T13:22:49.630Z,1.20
2018-01-17T13:25:17.134Z,1.20
2018-01-17T13:27:44.673Z,1.20
2018-01-17T13:30:12.958Z,1.10
2018-01-17T13:32:41.264Z,1.10
2018-01-17T13:35:08.782Z,1.00
2018-01-17T13:37:36.289Z,1.00
2018-01-17T13:40:03.861Z,1.00
2018-01-17T13:42:32.151Z,1.00
2018-01-17T13:45:00.457Z,1.00
2018-01-17T13:47:27.936Z,1.00
2018-01-17T13:49:55.481Z,1.00
2018-01-17T13:52:23.787Z,1.10
2018-01-17T13:54:51.309Z,1.10
2018-01-17T13:57:18.837Z,1.10
2018-01-17T13:59:46.373Z,1.10
2018-01-17T14:02:14.674Z,1.10
2018-01-17T14:04:42.971Z,1.20
2018-01-17T14:07:10.481Z,1.20
2018-01-17T14:09:38.042Z,1.20
2018-01-17T14:12:05.565Z,1.20
2018-01-17T14:14:33.828Z,1.30
2018-01-17T14:17:01.482Z,1.30
2018-01-17T14:19:28.980Z,1.30
2018-01-17T14:21:56.524Z,1.40
2018-01-17T14:24:24.781Z,1.40
2018-01-17T14:26:52.337Z,1.40
2018-01-17T14:29:20.010Z,1.40
2018-01-17T14:31:47.620Z,1.50
2018-01-17T14:34:15.892Z,1.50
2018-01-17T14:36:47.216Z,1.50
2018-01-17T14:39:14.934Z,1.50
2018-01-17T14:41:43.149Z,1.50
2018-01-17T14:44:10.816Z,1.60
2018-01-17T14:46:39.205Z,1.60
2018-01-17T14:49:06.737Z,1.60
2018-01-17T14:51:34.244Z,1.60
2018-01-17T14:54:01.758Z,1.70
2018-01-17T14:56:29.282Z,1.70
2018-01-17T14:58:56.859Z,1.70
2018-01-17T15:01:24.362Z,1.70
2018-01-17T15:03:51.879Z,1.70
2018-01-17T15:06:19.423Z,1.80
2018-01-17T15:08:46.909Z,1.80
2018-01-17T15:11:14.444Z,1.80
2018-01-17T15:13:41.952Z,1.80
2018-01-17T15:16:09.483Z,1.80
2018-01-17T15:18:36.985Z,1.80
2018-01-17T15:21:05.350Z,1.80
2018-01-17T15:23:33.673Z,1.80
2018-01-17T15:26:01.176Z,1.80
2018-01-17T15:28:28.682Z,1.90
2018-01-17T15:30:56.205Z,1.90
2018-01-17T15:33:23.812Z,1.80
2018-01-17T15:35:51.335Z,1.90
2018-01-17T15:38:18.858Z,1.90
2018-01-17T15:40:46.410Z,1.90
2018-01-17T15:43:14.718Z,1.90
2018-01-17T15:45:42.280Z,1.90
2018-01-17T15:48:10.549Z,1.90
2018-01-17T15:50:38.784Z,1.90
2018-01-17T15:53:06.399Z,1.90
2018-01-17T15:55:34.083Z,1.90
2018-01-17T15:58:01.596Z,1.90
2018-01-17T16:00:29.119Z,1.90
2018-01-17T16:02:56.736Z,1.90
2018-01-17T16:05:24.311Z,1.90
2018-01-17T16:07:51.825Z,1.90
2018-01-17T16:10:19.323Z,1.90
2018-01-17T16:12:47.811Z,1.90
2018-01-17T16:15:16.087Z,2.00
2018-01-17T16:17:43.646Z,2.00
2018-01-17T16:20:11.880Z,2.00
2018-01-17T16:22:39.414Z,1.90
2018-01-17T16:25:07.732Z,2.00
2018-01-17T16:27:37.045Z,2.00
2018-01-17T16:30:05.329Z,2.00
2018-01-17T16:32:33.632Z,2.00
2018-01-17T16:35:01.158Z,1.90
2018-01-17T16:37:28.735Z,2.00
2018-01-17T16:39:57.268Z,1.90
2018-01-17T16:42:24.829Z,2.00
2018-01-17T16:44:52.674Z,2.00
2018-01-17T16:47:21.343Z,2.00
2018-01-17T16:49:49.740Z,2.00
2018-01-17T16:52:17.455Z,2.00
2018-01-17T16:54:44.991Z,2.00
2018-01-17T16:57:12.594Z,2.00
2018-01-17T16:59:40.277Z,2.00
2018-01-17T17:02:08.034Z,2.00
2018-01-17T17:04:36.592Z,2.00
2018-01-17T17:07:04.208Z,2.00
2018-01-17T17:09:31.725Z,2.10
2018-01-17T17:12:00.357Z,2.00
2018-01-17T17:14:28.633Z,2.00
2018-01-17T17:16:56.241Z,2.00
2018-01-17T17:19:23.820Z,2.10
2018-01-17T17:21:52.406Z,2.00
2018-01-17T17:24:20.099Z,2.00
2018-01-17T17:26:47.836Z,2.00
2018-01-17T17:29:15.396Z,2.10
2018-01-17T17:31:43.752Z,2.10
2018-01-17T17:34:11.687Z,2.10
2018-01-17T17:36:40.044Z,2.00
2018-01-17T17:39:08.394Z,2.00
2018-01-17T17:41:36.993Z,2.00
2018-01-17T17:44:04.576Z,2.00
2018-01-17T17:46:32.117Z,2.10
2018-01-17T17:48:59.985Z,2.00
2018-01-17T17:51:27.568Z,2.10
2018-01-17T17:53:55.932Z,2.10
2018-01-17T17:56:23.462Z,2.10
2018-01-17T17:58:51.206Z,2.10
2018-01-17T18:01:19.260Z,2.10
2018-01-17T18:03:47.024Z,2.10
2018-01-17T18:06:14.569Z,2.10
2018-01-17T18:08:42.324Z,2.10
2018-01-17T18:11:09.907Z,2.20
2018-01-17T18:13:37.697Z,2.20
2018-01-17T18:16:06.333Z,2.20
2018-01-17T18:18:34.699Z,2.20
2018-01-17T18:21:02.586Z,2.10
2018-01-17T18:23:30.174Z,2.10
2018-01-17T18:25:57.713Z,2.10
2018-01-17T18:28:25.261Z,2.10
2018-01-17T18:30:52.911Z,2.10
2018-01-17T18:33:21.208Z,2.10
2018-01-17T18:35:48.737Z,2.10
2018-01-17T18:38:16.322Z,2.10
2018-01-17T18:40:43.874Z,2.10
2018-01-17T18:43:11.493Z,2.10
2018-01-17T18:45:39.360Z,2.10
2018-01-17T18:48:06.960Z,2.10
2018-01-17T18:50:34.537Z,2.10
2018-01-17T18:53:02.133Z,2.10
2018-01-17T18:55:29.702Z,2.10
2018-01-17T18:57:57.269Z,2.10
2018-01-17T19:00:24.818Z,2.10
2018-01-17T19:02:52.336Z,2.00
2018-01-17T19:05:19.962Z,2.00
2018-01-17T19:07:47.548Z,2.00
2018-01-17T19:10:15.102Z,2.00
2018-01-17T19:12:42.657Z,2.10
2018-01-17T19:15:10.694Z,2.10
2018-01-17T19:17:38.318Z,2.10
2018-01-17T19:20:05.868Z,2.00
2018-01-17T19:22:34.196Z,2.00
2018-01-17T19:25:01.959Z,2.00
2018-01-17T19:27:29.482Z,2.00
2018-01-17T19:29:57.158Z,2.00
2018-01-17T19:32:24.701Z,2.00
2018-01-17T19:34:52.329Z,2.00
2018-01-17T19:37:19.956Z,2.00
2018-01-17T19:39:48.594Z,2.00
2018-01-17T19:42:16.278Z,2.00
2018-01-17T19:44:44.392Z,2.00
2018-01-17T19:47:12.330Z,2.00
2018-01-17T19:49:40.670Z,2.00
2018-01-17T19:52:08.283Z,2.00
2018-01-17T19:54:36.791Z,2.10
2018-01-17T19:57:05.160Z,2.10
2018-01-17T19:59:32.779Z,2.10
2018-01-17T20:02:00.387Z,2.10
2018-01-17T20:04:34.989Z,2.00
2018-01-17T20:07:02.561Z,2.10
2018-01-17T20:09:30.097Z,2.10
2018-01-17T20:11:57.928Z,2.10
2018-01-17T20:14:25.491Z,2.10
2018-01-17T20:16:53.456Z,2.10
2018-01-17T20:19:21.079Z,2.10
2018-01-17T20:21:48.757Z,2.20
2018-01-17T20:24:16.431Z,2.10
2018-01-17T20:26:44.771Z,2.20
2018-01-17T20:29:12.342Z,2.20
2018-01-17T20:31:40.059Z,2.20
2018-01-17T20:34:09.067Z,2.20
2018-01-17T20:36:36.768Z,2.20
2018-01-17T20:39:05.334Z,2.20
2018-01-17T20:41:33.073Z,2.20
2018-01-17T20:44:00.577Z,2.20
2018-01-17T20:46:30.802Z,2.20
2018-01-17T20:48:58.355Z,2.20
2018-01-17T20:51:25.948Z,2.20
2018-01-17T20:53:53.593Z,2.20
2018-01-17T20:56:21.130Z,2.20
2018-01-17T20:58:48.711Z,2.20
2018-01-17T21:01:17.116Z,2.20
2018-01-17T21:03:44.666Z,2.20
2018-01-17T21:06:13.087Z,2.30
2018-01-17T21:08:41.449Z,2.20
2018-01-17T21:11:09.783Z,2.20
2018-01-17T21:13:37.300Z,2.20
2018-01-17T21:16:05.091Z,2.20
2018-01-17T21:18:33.508Z,2.20
2018-01-17T21:21:01.087Z,2.20
2018-01-17T21:23:28.633Z,2.20
2018-01-17T21:25:57.345Z,2.20
2018-01-17T21:28:24.887Z,2.20
2018-01-17T21:30:53.211Z,2.40
2018-01-17T21:33:20.815Z,2.40
2018-01-17T21:35:48.404Z,2.60
2018-01-17T21:38:15.961Z,2.60
2018-01-17T21:40:43.578Z,2.50
2018-01-17T21:43:17.727Z,2.40
2018-01-17T21:45:50.228Z,2.30
2018-01-17T21:48:17.794Z,2.30
2018-01-17T21:50:45.334Z,2.30
2018-01-17T21:53:13.636Z,2.30
2018-01-17T21:55:41.916Z,2.30
2018-01-17T21:58:10.254Z,2.40
2018-01-17T22:00:37.857Z,2.30
2018-01-17T22:03:05.572Z,2.30
2018-01-17T22:05:33.102Z,2.30
2018-01-17T22:08:00.643Z,2.30
2018-01-17T22:10:28.175Z,2.30
2018-01-17T22:12:55.739Z,2.30
2018-01-17T22:15:24.041Z,2.40
2018-01-17T22:17:51.555Z,2.40
2018-01-17T22:20:19.158Z,2.40
2018-01-17T22:22:47.435Z,2.30
2018-01-17T22:25:14.961Z,2.30
2018-01-17T22:27:42.485Z,2.30
2018-01-17T22:30:10.767Z,2.30
2018-01-17T22:32:38.293Z,2.30
2018-01-17T22:35:05.977Z,2.20
2018-01-17T22:37:33.614Z,2.20
2018-01-17T22:40:01.132Z,2.20
2018-01-17T22:42:28.863Z,2.30
2018-01-17T22:44:56.376Z,2.30
2018-01-17T22:47:24.679Z,2.30
2018-01-17T22:49:52.948Z,2.30
2018-01-17T22:52:20.469Z,2.30
2018-01-17T22:54:47.975Z,2.30
2018-01-17T22:57:15.512Z,2.20
2018-01-17T22:59:43.025Z,2.20
2018-01-17T23:02:10.629Z,2.20
2018-01-17T23:04:38.195Z,2.20
2018-01-17T23:07:07.162Z,2.20
2018-01-17T23:09:34.766Z,2.20
2018-01-17T23:12:02.423Z,2.20
2018-01-17T23:14:30.156Z,2.20
2018-01-17T23:16:57.693Z,2.20
2018-01-17T23:19:26.117Z,2.30
2018-01-17T23:21:53.616Z,2.30
2018-01-17T23:24:21.148Z,2.30
2018-01-17T23:26:48.736Z,2.30
2018-01-17T23:29:16.318Z,2.30
2018-01-17T23:31:44.877Z,2.20
2018-01-17T23:34:12.433Z,2.20
2018-01-17T23:36:40.492Z,2.20
2018-01-17T23:39:09.024Z,2.20
2018-01-17T23:41:36.717Z,2.20
2018-01-17T23:44:04.224Z,2.20
2018-01-17T23:46:33.859Z,2.20
2018-01-17T23:49:02.178Z,2.20
2018-01-17T23:51:29.686Z,2.20
2018-01-17T23:53:57.249Z,2.20
2018-01-17T23:56:24.819Z,2.20
2018-01-17T23:58:52.343Z,2.20
